sensor_id;sensor_type;location;lat;lon;timestamp;P1;durP1;ratioP1;P2;durP2;ratioP2
8714;SDS011;4394;51.208;8.904;2023-02-24T00:00:03;13.53;;;7.43;;
8714;SDS011;4394;51.208;8.904;2023-02-24T00:03:17;15.33;;;7.27;;
8714;SDS011;4394;51.208;8.904;2023-02-24T00:06:05;14.97;;;7.13;;
8714;SDS011;4394;51.208;8.904;2023-02-24T00:08:57;14.20;;;7.67;;
8714;SDS011;4394;51.208;8.904;2023-02-24T00:11:45;15.13;;;7.77;;
8714;SDS011;4394;51.208;8.904;2023-02-24T00:14:37;15.80;;;7.47;;
8714;SDS011;4394;51.208;8.904;2023-02-24T00:17:26;13.60;;;7.37;;
8714;SDS011;4394;51.208;8.904;2023-02-24T00:20:16;15.10;;;7.20;;
8714;SDS011;4394;51.208;8.904;2023-02-24T00:23:04;12.70;;;6.50;;
8714;SDS011;4394;51.208;8.904;2023-02-24T00:25:57;14.37;;;7.10;;
8714;SDS011;4394;51.208;8.904;2023-02-24T00:28:45;11.40;;;6.40;;
8714;SDS011;4394;51.208;8.904;2023-02-24T00:31:35;11.40;;;5.93;;
8714;SDS011;4394;51.208;8.904;2023-02-24T00:34:28;10.77;;;6.37;;
8714;SDS011;4394;51.208;8.904;2023-02-24T00:37:17;12.53;;;6.13;;
8714;SDS011;4394;51.208;8.904;2023-02-24T00:40:09;12.07;;;5.70;;
8714;SDS011;4394;51.208;8.904;2023-02-24T00:42:58;11.73;;;6.40;;
8714;SDS011;4394;51.208;8.904;2023-02-24T00:45:46;10.50;;;5.97;;
8714;SDS011;4394;51.208;8.904;2023-02-24T00:48:38;12.33;;;6.40;;
8714;SDS011;4394;51.208;8.904;2023-02-24T00:51:26;9.67;;;5.53;;
8714;SDS011;4394;51.208;8.904;2023-02-24T00:54:15;11.60;;;6.00;;
8714;SDS011;4394;51.208;8.904;2023-02-24T00:57:04;11.73;;;6.23;;
8714;SDS011;4394;51.208;8.904;2023-02-24T00:59:53;12.70;;;6.37;;
8714;SDS011;4394;51.208;8.904;2023-02-24T01:02:43;12.20;;;6.13;;
8714;SDS011;4394;51.208;8.904;2023-02-24T01:05:35;13.47;;;6.23;;
8714;SDS011;4394;51.208;8.904;2023-02-24T01:08:23;13.03;;;6.47;;
8714;SDS011;4394;51.208;8.904;2023-02-24T01:11:11;13.80;;;6.67;;
8714;SDS011;4394;51.208;8.904;2023-02-24T01:14:18;11.93;;;6.43;;
8714;SDS011;4394;51.208;8.904;2023-02-24T01:17:08;15.17;;;6.93;;
8714;SDS011;4394;51.208;8.904;2023-02-24T01:19:56;15.60;;;7.40;;
8714;SDS011;4394;51.208;8.904;2023-02-24T01:22:47;13.57;;;7.70;;
8714;SDS011;4394;51.208;8.904;2023-02-24T01:25:38;14.07;;;7.27;;
8714;SDS011;4394;51.208;8.904;2023-02-24T01:28:33;14.30;;;7.23;;
8714;SDS011;4394;51.208;8.904;2023-02-24T01:31:21;16.60;;;7.40;;
8714;SDS011;4394;51.208;8.904;2023-02-24T01:34:11;16.43;;;7.87;;
8714;SDS011;4394;51.208;8.904;2023-02-24T01:36:59;15.13;;;7.70;;
8714;SDS011;4394;51.208;8.904;2023-02-24T01:39:48;17.43;;;8.40;;
8714;SDS011;4394;51.208;8.904;2023-02-24T01:42:40;15.70;;;7.93;;
8714;SDS011;4394;51.208;8.904;2023-02-24T01:45:29;19.73;;;8.53;;
8714;SDS011;4394;51.208;8.904;2023-02-24T01:48:21;14.13;;;7.27;;
8714;SDS011;4394;51.208;8.904;2023-02-24T01:51:10;17.73;;;8.13;;
8714;SDS011;4394;51.208;8.904;2023-02-24T01:53:59;13.43;;;7.47;;
8714;SDS011;4394;51.208;8.904;2023-02-24T01:56:49;11.07;;;6.40;;
8714;SDS011;4394;51.208;8.904;2023-02-24T01:59:38;10.43;;;5.27;;
8714;SDS011;4394;51.208;8.904;2023-02-24T02:02:26;10.73;;;4.83;;
8714;SDS011;4394;51.208;8.904;2023-02-24T02:05:15;6.90;;;4.17;;
8714;SDS011;4394;51.208;8.904;2023-02-24T02:08:03;7.67;;;4.27;;
8714;SDS011;4394;51.208;8.904;2023-02-24T02:10:54;6.87;;;4.03;;
8714;SDS011;4394;51.208;8.904;2023-02-24T02:13:49;7.10;;;3.80;;
8714;SDS011;4394;51.208;8.904;2023-02-24T02:16:40;7.27;;;3.60;;
8714;SDS011;4394;51.208;8.904;2023-02-24T02:23:13;4.93;;;2.97;;
8714;SDS011;4394;51.208;8.904;2023-02-24T02:29:41;4.87;;;2.47;;
8714;SDS011;4394;51.208;8.904;2023-02-24T02:33:14;3.17;;;2.27;;
8714;SDS011;4394;51.208;8.904;2023-02-24T02:36:15;2.80;;;1.73;;
8714;SDS011;4394;51.208;8.904;2023-02-24T02:39:11;2.83;;;1.83;;
8714;SDS011;4394;51.208;8.904;2023-02-24T02:42:05;2.50;;;1.70;;
8714;SDS011;4394;51.208;8.904;2023-02-24T02:45:01;2.83;;;1.40;;
8714;SDS011;4394;51.208;8.904;2023-02-24T02:47:53;2.60;;;1.37;;
8714;SDS011;4394;51.208;8.904;2023-02-24T02:50:47;2.20;;;1.63;;
8714;SDS011;4394;51.208;8.904;2023-02-24T02:53:40;3.53;;;1.70;;
8714;SDS011;4394;51.208;8.904;2023-02-24T02:56:35;2.30;;;1.63;;
8714;SDS011;4394;51.208;8.904;2023-02-24T02:59:28;2.90;;;1.70;;
8714;SDS011;4394;51.208;8.904;2023-02-24T03:02:21;3.20;;;1.53;;
8714;SDS011;4394;51.208;8.904;2023-02-24T03:05:15;1.53;;;1.10;;
8714;SDS011;4394;51.208;8.904;2023-02-24T03:08:07;1.23;;;1.13;;
8714;SDS011;4394;51.208;8.904;2023-02-24T03:11:02;1.20;;;1.10;;
8714;SDS011;4394;51.208;8.904;2023-02-24T03:13:55;1.67;;;1.40;;
8714;SDS011;4394;51.208;8.904;2023-02-24T03:16:44;1.50;;;1.33;;
8714;SDS011;4394;51.208;8.904;2023-02-24T03:19:36;2.87;;;1.23;;
8714;SDS011;4394;51.208;8.904;2023-02-24T03:22:27;2.03;;;1.70;;
8714;SDS011;4394;51.208;8.904;2023-02-24T03:25:21;2.30;;;1.53;;
8714;SDS011;4394;51.208;8.904;2023-02-24T03:28:17;2.40;;;1.43;;
8714;SDS011;4394;51.208;8.904;2023-02-24T03:31:09;2.37;;;1.60;;
8714;SDS011;4394;51.208;8.904;2023-02-24T03:34:01;2.23;;;1.70;;
8714;SDS011;4394;51.208;8.904;2023-02-24T03:36:52;5.93;;;2.37;;
8714;SDS011;4394;51.208;8.904;2023-02-24T03:39:41;4.73;;;2.53;;
8714;SDS011;4394;51.208;8.904;2023-02-24T03:42:31;5.87;;;3.20;;
8714;SDS011;4394;51.208;8.904;2023-02-24T03:45:22;5.17;;;3.33;;
8714;SDS011;4394;51.208;8.904;2023-02-24T03:48:13;3.43;;;2.43;;
8714;SDS011;4394;51.208;8.904;2023-02-24T03:51:02;3.97;;;2.60;;
8714;SDS011;4394;51.208;8.904;2023-02-24T03:53:55;4.60;;;2.40;;
8714;SDS011;4394;51.208;8.904;2023-02-24T03:56:53;5.43;;;2.83;;
8714;SDS011;4394;51.208;8.904;2023-02-24T03:59:53;6.40;;;2.60;;
8714;SDS011;4394;51.208;8.904;2023-02-24T04:03:11;4.53;;;2.70;;
8714;SDS011;4394;51.208;8.904;2023-02-24T04:06:10;5.20;;;2.70;;
8714;SDS011;4394;51.208;8.904;2023-02-24T04:09:04;4.03;;;2.33;;
8714;SDS011;4394;51.208;8.904;2023-02-24T04:12:01;4.37;;;2.13;;
8714;SDS011;4394;51.208;8.904;2023-02-24T04:14:56;4.20;;;2.47;;
8714;SDS011;4394;51.208;8.904;2023-02-24T04:17:51;6.40;;;2.60;;
8714;SDS011;4394;51.208;8.904;2023-02-24T04:20:44;5.93;;;2.83;;
8714;SDS011;4394;51.208;8.904;2023-02-24T04:23:35;4.73;;;3.07;;
8714;SDS011;4394;51.208;8.904;2023-02-24T04:26:26;5.30;;;2.40;;
8714;SDS011;4394;51.208;8.904;2023-02-24T04:29:17;4.47;;;2.90;;
8714;SDS011;4394;51.208;8.904;2023-02-24T04:32:08;5.07;;;2.60;;
8714;SDS011;4394;51.208;8.904;2023-02-24T04:35:02;5.30;;;2.30;;
8714;SDS011;4394;51.208;8.904;2023-02-24T04:37:54;4.00;;;2.50;;
8714;SDS011;4394;51.208;8.904;2023-02-24T04:40:42;6.37;;;2.60;;
8714;SDS011;4394;51.208;8.904;2023-02-24T04:43:30;5.47;;;2.90;;
8714;SDS011;4394;51.208;8.904;2023-02-24T04:46:18;4.20;;;2.20;;
8714;SDS011;4394;51.208;8.904;2023-02-24T04:49:08;3.87;;;2.30;;
8714;SDS011;4394;51.208;8.904;2023-02-24T04:51:56;4.27;;;2.40;;
8714;SDS011;4394;51.208;8.904;2023-02-24T04:54:45;4.07;;;2.27;;
8714;SDS011;4394;51.208;8.904;2023-02-24T04:57:34;4.17;;;2.27;;
8714;SDS011;4394;51.208;8.904;2023-02-24T05:00:23;5.97;;;2.60;;
8714;SDS011;4394;51.208;8.904;2023-02-24T05:03:12;5.10;;;2.57;;
8714;SDS011;4394;51.208;8.904;2023-02-24T05:06:02;3.77;;;2.17;;
8714;SDS011;4394;51.208;8.904;2023-02-24T05:08:51;6.30;;;2.40;;
8714;SDS011;4394;51.208;8.904;2023-02-24T05:11:41;4.57;;;2.20;;
8714;SDS011;4394;51.208;8.904;2023-02-24T05:14:30;4.30;;;2.23;;
8714;SDS011;4394;51.208;8.904;2023-02-24T05:17:18;3.83;;;2.23;;
8714;SDS011;4394;51.208;8.904;2023-02-24T05:20:06;4.30;;;2.57;;
8714;SDS011;4394;51.208;8.904;2023-02-24T05:23:13;6.47;;;3.23;;
8714;SDS011;4394;51.208;8.904;2023-02-24T05:26:02;4.80;;;2.70;;
8714;SDS011;4394;51.208;8.904;2023-02-24T05:28:55;4.57;;;2.23;;
8714;SDS011;4394;51.208;8.904;2023-02-24T05:31:45;5.70;;;2.57;;
8714;SDS011;4394;51.208;8.904;2023-02-24T05:34:33;5.37;;;2.83;;
8714;SDS011;4394;51.208;8.904;2023-02-24T05:37:21;4.90;;;2.60;;
8714;SDS011;4394;51.208;8.904;2023-02-24T05:40:09;4.97;;;3.03;;
8714;SDS011;4394;51.208;8.904;2023-02-24T05:42:59;10.37;;;3.33;;
8714;SDS011;4394;51.208;8.904;2023-02-24T05:45:51;6.00;;;3.23;;
8714;SDS011;4394;51.208;8.904;2023-02-24T05:48:39;7.83;;;3.57;;
8714;SDS011;4394;51.208;8.904;2023-02-24T05:51:28;6.83;;;3.60;;
8714;SDS011;4394;51.208;8.904;2023-02-24T05:54:21;8.77;;;3.97;;
8714;SDS011;4394;51.208;8.904;2023-02-24T05:57:12;8.07;;;3.97;;
8714;SDS011;4394;51.208;8.904;2023-02-24T06:00:02;9.43;;;3.87;;
8714;SDS011;4394;51.208;8.904;2023-02-24T06:03:02;9.67;;;3.93;;
8714;SDS011;4394;51.208;8.904;2023-02-24T06:05:53;8.50;;;3.57;;
8714;SDS011;4394;51.208;8.904;2023-02-24T06:08:44;7.50;;;3.63;;
8714;SDS011;4394;51.208;8.904;2023-02-24T06:11:35;6.00;;;3.50;;
8714;SDS011;4394;51.208;8.904;2023-02-24T06:14:24;6.27;;;3.40;;
8714;SDS011;4394;51.208;8.904;2023-02-24T06:17:13;8.83;;;3.77;;
8714;SDS011;4394;51.208;8.904;2023-02-24T06:20:05;5.70;;;3.60;;
8714;SDS011;4394;51.208;8.904;2023-02-24T06:23:00;8.03;;;3.90;;
8714;SDS011;4394;51.208;8.904;2023-02-24T06:25:50;9.17;;;4.33;;
8714;SDS011;4394;51.208;8.904;2023-02-24T06:28:38;10.00;;;4.17;;
8714;SDS011;4394;51.208;8.904;2023-02-24T06:31:28;9.30;;;3.87;;
8714;SDS011;4394;51.208;8.904;2023-02-24T06:34:16;9.73;;;4.40;;
8714;SDS011;4394;51.208;8.904;2023-02-24T06:37:06;11.00;;;4.33;;
8714;SDS011;4394;51.208;8.904;2023-02-24T06:39:57;11.60;;;4.80;;
8714;SDS011;4394;51.208;8.904;2023-02-24T06:42:45;10.17;;;4.70;;
8714;SDS011;4394;51.208;8.904;2023-02-24T06:45:33;9.53;;;4.47;;
8714;SDS011;4394;51.208;8.904;2023-02-24T06:48:21;7.90;;;4.33;;
8714;SDS011;4394;51.208;8.904;2023-02-24T06:51:10;7.67;;;4.47;;
8714;SDS011;4394;51.208;8.904;2023-02-24T06:54:02;9.53;;;4.87;;
8714;SDS011;4394;51.208;8.904;2023-02-24T06:56:51;9.70;;;4.77;;
8714;SDS011;4394;51.208;8.904;2023-02-24T06:59:39;8.83;;;4.73;;
8714;SDS011;4394;51.208;8.904;2023-02-24T07:02:27;11.27;;;5.20;;
8714;SDS011;4394;51.208;8.904;2023-02-24T07:05:24;9.83;;;5.13;;
8714;SDS011;4394;51.208;8.904;2023-02-24T07:08:14;11.80;;;5.20;;
8714;SDS011;4394;51.208;8.904;2023-02-24T07:11:04;8.27;;;4.27;;
8714;SDS011;4394;51.208;8.904;2023-02-24T07:13:53;8.80;;;4.90;;
8714;SDS011;4394;51.208;8.904;2023-02-24T07:16:42;9.87;;;4.47;;
8714;SDS011;4394;51.208;8.904;2023-02-24T07:19:31;11.93;;;4.43;;
8714;SDS011;4394;51.208;8.904;2023-02-24T07:22:19;11.20;;;4.93;;
8714;SDS011;4394;51.208;8.904;2023-02-24T07:25:10;9.47;;;4.90;;
8714;SDS011;4394;51.208;8.904;2023-02-24T07:28:17;10.70;;;4.83;;
8714;SDS011;4394;51.208;8.904;2023-02-24T07:31:05;11.47;;;4.73;;
8714;SDS011;4394;51.208;8.904;2023-02-24T07:33:54;8.73;;;4.43;;
8714;SDS011;4394;51.208;8.904;2023-02-24T07:36:42;11.43;;;5.00;;
8714;SDS011;4394;51.208;8.904;2023-02-24T07:39:35;9.03;;;4.43;;
8714;SDS011;4394;51.208;8.904;2023-02-24T07:42:24;9.90;;;4.60;;
8714;SDS011;4394;51.208;8.904;2023-02-24T07:45:17;10.30;;;4.73;;
8714;SDS011;4394;51.208;8.904;2023-02-24T07:48:04;12.50;;;5.43;;
8714;SDS011;4394;51.208;8.904;2023-02-24T07:50:53;10.03;;;5.27;;
8714;SDS011;4394;51.208;8.904;2023-02-24T07:53:41;7.07;;;4.77;;
8714;SDS011;4394;51.208;8.904;2023-02-24T07:56:29;12.13;;;5.37;;
8714;SDS011;4394;51.208;8.904;2023-02-24T07:59:18;8.17;;;4.47;;
8714;SDS011;4394;51.208;8.904;2023-02-24T08:02:09;9.80;;;4.47;;
8714;SDS011;4394;51.208;8.904;2023-02-24T08:04:58;11.77;;;4.40;;
8714;SDS011;4394;51.208;8.904;2023-02-24T08:07:48;9.50;;;4.17;;
8714;SDS011;4394;51.208;8.904;2023-02-24T08:10:39;8.37;;;4.57;;
8714;SDS011;4394;51.208;8.904;2023-02-24T08:13:27;9.50;;;3.67;;
8714;SDS011;4394;51.208;8.904;2023-02-24T08:16:22;8.30;;;3.90;;
8714;SDS011;4394;51.208;8.904;2023-02-24T08:19:12;9.23;;;4.20;;
8714;SDS011;4394;51.208;8.904;2023-02-24T08:22:06;7.03;;;3.93;;
8714;SDS011;4394;51.208;8.904;2023-02-24T08:25:05;7.07;;;3.53;;
8714;SDS011;4394;51.208;8.904;2023-02-24T08:27:53;9.37;;;3.53;;
8714;SDS011;4394;51.208;8.904;2023-02-24T08:30:53;9.23;;;3.73;;
8714;SDS011;4394;51.208;8.904;2023-02-24T08:33:41;9.67;;;3.73;;
8714;SDS011;4394;51.208;8.904;2023-02-24T08:36:30;7.90;;;3.40;;
8714;SDS011;4394;51.208;8.904;2023-02-24T08:39:18;7.53;;;3.93;;
8714;SDS011;4394;51.208;8.904;2023-02-24T08:42:07;10.77;;;3.80;;
8714;SDS011;4394;51.208;8.904;2023-02-24T08:44:59;6.03;;;2.90;;
8714;SDS011;4394;51.208;8.904;2023-02-24T08:47:48;7.90;;;2.70;;
8714;SDS011;4394;51.208;8.904;2023-02-24T08:50:39;9.03;;;2.83;;
8714;SDS011;4394;51.208;8.904;2023-02-24T08:53:32;4.03;;;2.40;;
8714;SDS011;4394;51.208;8.904;2023-02-24T08:56:21;6.33;;;2.60;;
8714;SDS011;4394;51.208;8.904;2023-02-24T08:59:11;4.93;;;2.53;;
8714;SDS011;4394;51.208;8.904;2023-02-24T09:02:15;4.87;;;2.40;;
8714;SDS011;4394;51.208;8.904;2023-02-24T09:05:09;4.17;;;1.93;;
8714;SDS011;4394;51.208;8.904;2023-02-24T09:08:01;4.40;;;2.43;;
8714;SDS011;4394;51.208;8.904;2023-02-24T09:10:51;4.47;;;2.43;;
8714;SDS011;4394;51.208;8.904;2023-02-24T09:13:39;4.70;;;1.87;;
8714;SDS011;4394;51.208;8.904;2023-02-24T09:16:36;5.63;;;2.40;;
8714;SDS011;4394;51.208;8.904;2023-02-24T09:19:38;4.40;;;2.20;;
8714;SDS011;4394;51.208;8.904;2023-02-24T09:22:41;4.83;;;2.20;;
8714;SDS011;4394;51.208;8.904;2023-02-24T09:25:42;5.07;;;2.27;;
8714;SDS011;4394;51.208;8.904;2023-02-24T09:28:31;8.07;;;2.50;;
8714;SDS011;4394;51.208;8.904;2023-02-24T09:31:33;3.43;;;2.37;;
8714;SDS011;4394;51.208;8.904;2023-02-24T09:34:33;8.30;;;2.40;;
8714;SDS011;4394;51.208;8.904;2023-02-24T09:37:22;6.43;;;2.60;;
8714;SDS011;4394;51.208;8.904;2023-02-24T09:40:11;7.50;;;2.40;;
8714;SDS011;4394;51.208;8.904;2023-02-24T09:43:25;7.80;;;2.60;;
8714;SDS011;4394;51.208;8.904;2023-02-24T09:46:17;8.60;;;2.63;;
8714;SDS011;4394;51.208;8.904;2023-02-24T09:49:07;4.33;;;2.30;;
8714;SDS011;4394;51.208;8.904;2023-02-24T09:52:02;6.27;;;2.60;;
8714;SDS011;4394;51.208;8.904;2023-02-24T09:54:54;6.70;;;2.03;;
8714;SDS011;4394;51.208;8.904;2023-02-24T09:57:57;4.73;;;2.00;;
8714;SDS011;4394;51.208;8.904;2023-02-24T10:01:07;4.73;;;2.50;;
8714;SDS011;4394;51.208;8.904;2023-02-24T10:04:38;7.90;;;2.67;;
8714;SDS011;4394;51.208;8.904;2023-02-24T10:07:35;4.07;;;2.23;;
8714;SDS011;4394;51.208;8.904;2023-02-24T10:10:26;6.17;;;2.83;;
8714;SDS011;4394;51.208;8.904;2023-02-24T10:13:21;4.53;;;2.33;;
8714;SDS011;4394;51.208;8.904;2023-02-24T10:16:18;7.47;;;2.60;;
8714;SDS011;4394;51.208;8.904;2023-02-24T10:19:13;5.60;;;2.53;;
8714;SDS011;4394;51.208;8.904;2023-02-24T10:22:13;6.40;;;3.37;;
8714;SDS011;4394;51.208;8.904;2023-02-24T10:25:18;9.53;;;2.70;;
8714;SDS011;4394;51.208;8.904;2023-02-24T10:28:16;6.40;;;2.90;;
8714;SDS011;4394;51.208;8.904;2023-02-24T10:31:12;4.30;;;2.57;;
8714;SDS011;4394;51.208;8.904;2023-02-24T10:34:13;5.37;;;2.53;;
8714;SDS011;4394;51.208;8.904;2023-02-24T10:37:14;3.73;;;2.90;;
8714;SDS011;4394;51.208;8.904;2023-02-24T10:40:14;5.33;;;3.03;;
8714;SDS011;4394;51.208;8.904;2023-02-24T10:43:14;5.17;;;2.70;;
8714;SDS011;4394;51.208;8.904;2023-02-24T10:46:04;6.63;;;2.57;;
8714;SDS011;4394;51.208;8.904;2023-02-24T10:48:53;7.60;;;2.63;;
8714;SDS011;4394;51.208;8.904;2023-02-24T10:51:50;5.07;;;2.13;;
8714;SDS011;4394;51.208;8.904;2023-02-24T10:54:39;6.67;;;2.67;;
8714;SDS011;4394;51.208;8.904;2023-02-24T10:57:50;7.80;;;2.70;;
8714;SDS011;4394;51.208;8.904;2023-02-24T11:00:46;6.90;;;2.87;;
8714;SDS011;4394;51.208;8.904;2023-02-24T11:03:47;4.47;;;2.47;;
8714;SDS011;4394;51.208;8.904;2023-02-24T11:06:48;5.50;;;3.10;;
8714;SDS011;4394;51.208;8.904;2023-02-24T11:09:40;7.70;;;2.93;;
8714;SDS011;4394;51.208;8.904;2023-02-24T11:12:41;5.00;;;2.70;;
8714;SDS011;4394;51.208;8.904;2023-02-24T11:15:55;8.97;;;3.33;;
8714;SDS011;4394;51.208;8.904;2023-02-24T11:19:00;7.53;;;3.03;;
8714;SDS011;4394;51.208;8.904;2023-02-24T11:21:54;6.13;;;2.90;;
8714;SDS011;4394;51.208;8.904;2023-02-24T11:24:43;7.63;;;3.00;;
8714;SDS011;4394;51.208;8.904;2023-02-24T11:27:35;5.40;;;2.80;;
8714;SDS011;4394;51.208;8.904;2023-02-24T11:30:34;10.07;;;3.63;;
8714;SDS011;4394;51.208;8.904;2023-02-24T11:33:30;5.07;;;2.90;;
8714;SDS011;4394;51.208;8.904;2023-02-24T11:36:26;8.10;;;4.10;;
8714;SDS011;4394;51.208;8.904;2023-02-24T11:39:26;5.67;;;2.60;;
8714;SDS011;4394;51.208;8.904;2023-02-24T11:42:29;5.77;;;3.07;;
8714;SDS011;4394;51.208;8.904;2023-02-24T11:45:24;5.00;;;2.90;;
8714;SDS011;4394;51.208;8.904;2023-02-24T11:48:18;5.20;;;2.60;;
8714;SDS011;4394;51.208;8.904;2023-02-24T11:51:09;6.57;;;3.37;;
8714;SDS011;4394;51.208;8.904;2023-02-24T11:54:00;4.97;;;2.70;;
8714;SDS011;4394;51.208;8.904;2023-02-24T11:56:53;7.57;;;3.00;;
8714;SDS011;4394;51.208;8.904;2023-02-24T11:59:43;7.13;;;2.97;;
8714;SDS011;4394;51.208;8.904;2023-02-24T12:02:36;6.13;;;2.70;;
8714;SDS011;4394;51.208;8.904;2023-02-24T12:05:33;6.13;;;3.07;;
8714;SDS011;4394;51.208;8.904;2023-02-24T12:08:26;5.50;;;3.53;;
8714;SDS011;4394;51.208;8.904;2023-02-24T12:11:18;8.03;;;3.77;;
8714;SDS011;4394;51.208;8.904;2023-02-24T12:14:15;8.57;;;3.43;;
8714;SDS011;4394;51.208;8.904;2023-02-24T12:17:13;6.27;;;3.80;;
8714;SDS011;4394;51.208;8.904;2023-02-24T12:20:08;7.50;;;3.50;;
8714;SDS011;4394;51.208;8.904;2023-02-24T12:23:08;7.93;;;3.73;;
8714;SDS011;4394;51.208;8.904;2023-02-24T12:26:07;7.17;;;3.53;;
8714;SDS011;4394;51.208;8.904;2023-02-24T12:29:29;7.33;;;3.80;;
8714;SDS011;4394;51.208;8.904;2023-02-24T12:32:39;8.13;;;4.20;;
8714;SDS011;4394;51.208;8.904;2023-02-24T12:35:39;9.37;;;3.93;;
8714;SDS011;4394;51.208;8.904;2023-02-24T12:38:36;7.07;;;3.87;;
8714;SDS011;4394;51.208;8.904;2023-02-24T12:41:37;7.03;;;3.67;;
8714;SDS011;4394;51.208;8.904;2023-02-24T12:44:40;4.80;;;3.30;;
8714;SDS011;4394;51.208;8.904;2023-02-24T12:47:35;5.90;;;3.80;;
8714;SDS011;4394;51.208;8.904;2023-02-24T12:50:34;7.93;;;3.57;;
8714;SDS011;4394;51.208;8.904;2023-02-24T12:53:33;7.50;;;3.60;;
8714;SDS011;4394;51.208;8.904;2023-02-24T12:56:31;6.37;;;3.40;;
8714;SDS011;4394;51.208;8.904;2023-02-24T12:59:29;8.50;;;4.07;;
8714;SDS011;4394;51.208;8.904;2023-02-24T13:02:24;5.80;;;3.77;;
8714;SDS011;4394;51.208;8.904;2023-02-24T13:05:26;5.90;;;3.70;;
8714;SDS011;4394;51.208;8.904;2023-02-24T13:08:20;5.70;;;3.43;;
8714;SDS011;4394;51.208;8.904;2023-02-24T13:11:18;5.50;;;3.47;;
8714;SDS011;4394;51.208;8.904;2023-02-24T13:14:18;5.33;;;3.77;;
8714;SDS011;4394;51.208;8.904;2023-02-24T13:17:18;5.77;;;3.33;;
8714;SDS011;4394;51.208;8.904;2023-02-24T13:20:10;4.87;;;3.37;;
8714;SDS011;4394;51.208;8.904;2023-02-24T13:22:59;4.73;;;3.33;;
8714;SDS011;4394;51.208;8.904;2023-02-24T13:25:50;4.80;;;3.37;;
8714;SDS011;4394;51.208;8.904;2023-02-24T13:28:39;5.00;;;3.00;;
8714;SDS011;4394;51.208;8.904;2023-02-24T13:31:37;4.80;;;3.30;;
8714;SDS011;4394;51.208;8.904;2023-02-24T13:34:28;5.60;;;3.70;;
8714;SDS011;4394;51.208;8.904;2023-02-24T13:37:26;5.47;;;3.37;;
8714;SDS011;4394;51.208;8.904;2023-02-24T13:40:20;4.30;;;3.20;;
8714;SDS011;4394;51.208;8.904;2023-02-24T13:43:21;4.10;;;3.33;;
8714;SDS011;4394;51.208;8.904;2023-02-24T13:46:15;4.90;;;3.77;;
8714;SDS011;4394;51.208;8.904;2023-02-24T13:49:22;3.83;;;3.43;;
8714;SDS011;4394;51.208;8.904;2023-02-24T13:52:18;4.07;;;3.47;;
8714;SDS011;4394;51.208;8.904;2023-02-24T13:55:22;4.23;;;3.00;;
8714;SDS011;4394;51.208;8.904;2023-02-24T13:58:22;4.60;;;3.30;;
8714;SDS011;4394;51.208;8.904;2023-02-24T14:01:21;4.77;;;3.47;;
8714;SDS011;4394;51.208;8.904;2023-02-24T14:04:13;4.10;;;3.50;;
8714;SDS011;4394;51.208;8.904;2023-02-24T14:07:07;5.10;;;3.60;;
8714;SDS011;4394;51.208;8.904;2023-02-24T14:09:58;5.60;;;3.70;;
8714;SDS011;4394;51.208;8.904;2023-02-24T14:12:54;3.90;;;3.47;;
8714;SDS011;4394;51.208;8.904;2023-02-24T14:15:49;4.27;;;3.13;;
8714;SDS011;4394;51.208;8.904;2023-02-24T14:18:38;4.97;;;3.60;;
8714;SDS011;4394;51.208;8.904;2023-02-24T14:21:27;4.30;;;3.73;;
8714;SDS011;4394;51.208;8.904;2023-02-24T14:24:16;4.27;;;3.67;;
8714;SDS011;4394;51.208;8.904;2023-02-24T14:27:04;5.70;;;4.27;;
8714;SDS011;4394;51.208;8.904;2023-02-24T14:29:53;6.30;;;3.93;;
8714;SDS011;4394;51.208;8.904;2023-02-24T14:32:41;4.30;;;3.60;;
8714;SDS011;4394;51.208;8.904;2023-02-24T14:35:31;4.37;;;3.97;;
8714;SDS011;4394;51.208;8.904;2023-02-24T14:38:32;5.77;;;4.07;;
8714;SDS011;4394;51.208;8.904;2023-02-24T14:41:22;4.93;;;4.43;;
8714;SDS011;4394;51.208;8.904;2023-02-24T14:44:16;4.30;;;3.90;;
8714;SDS011;4394;51.208;8.904;2023-02-24T14:47:08;5.00;;;4.27;;
8714;SDS011;4394;51.208;8.904;2023-02-24T14:50:00;4.87;;;3.87;;
8714;SDS011;4394;51.208;8.904;2023-02-24T14:52:50;4.47;;;3.43;;
8714;SDS011;4394;51.208;8.904;2023-02-24T14:55:42;3.90;;;3.50;;
8714;SDS011;4394;51.208;8.904;2023-02-24T14:58:35;3.83;;;3.53;;
8714;SDS011;4394;51.208;8.904;2023-02-24T15:01:31;5.17;;;4.00;;
8714;SDS011;4394;51.208;8.904;2023-02-24T15:04:30;4.37;;;3.80;;
8714;SDS011;4394;51.208;8.904;2023-02-24T15:07:21;5.10;;;4.10;;
8714;SDS011;4394;51.208;8.904;2023-02-24T15:10:18;4.00;;;3.57;;
8714;SDS011;4394;51.208;8.904;2023-02-24T15:13:09;4.33;;;3.73;;
8714;SDS011;4394;51.208;8.904;2023-02-24T15:16:03;4.43;;;3.40;;
8714;SDS011;4394;51.208;8.904;2023-02-24T15:18:58;3.90;;;3.50;;
8714;SDS011;4394;51.208;8.904;2023-02-24T15:21:48;4.27;;;3.47;;
8714;SDS011;4394;51.208;8.904;2023-02-24T15:24:36;3.50;;;3.13;;
8714;SDS011;4394;51.208;8.904;2023-02-24T15:27:25;3.43;;;3.13;;
8714;SDS011;4394;51.208;8.904;2023-02-24T15:30:24;3.83;;;3.20;;
8714;SDS011;4394;51.208;8.904;2023-02-24T15:33:15;3.73;;;3.43;;
8714;SDS011;4394;51.208;8.904;2023-02-24T15:36:09;3.43;;;3.13;;
8714;SDS011;4394;51.208;8.904;2023-02-24T15:39:02;3.57;;;3.20;;
8714;SDS011;4394;51.208;8.904;2023-02-24T15:41:52;4.10;;;3.57;;
8714;SDS011;4394;51.208;8.904;2023-02-24T15:44:53;3.70;;;3.33;;
8714;SDS011;4394;51.208;8.904;2023-02-24T15:47:43;4.50;;;4.10;;
8714;SDS011;4394;51.208;8.904;2023-02-24T15:50:31;4.40;;;3.90;;
8714;SDS011;4394;51.208;8.904;2023-02-24T15:53:19;4.27;;;3.87;;
8714;SDS011;4394;51.208;8.904;2023-02-24T15:56:08;4.13;;;3.73;;
8714;SDS011;4394;51.208;8.904;2023-02-24T15:58:56;3.30;;;3.00;;
8714;SDS011;4394;51.208;8.904;2023-02-24T16:01:45;3.73;;;3.40;;
8714;SDS011;4394;51.208;8.904;2023-02-24T16:04:33;3.23;;;2.93;;
8714;SDS011;4394;51.208;8.904;2023-02-24T16:07:23;3.13;;;2.87;;
8714;SDS011;4394;51.208;8.904;2023-02-24T16:10:16;3.00;;;2.80;;
8714;SDS011;4394;51.208;8.904;2023-02-24T16:13:08;3.17;;;2.70;;
8714;SDS011;4394;51.208;8.904;2023-02-24T16:16:03;3.00;;;2.70;;
8714;SDS011;4394;51.208;8.904;2023-02-24T16:18:52;2.93;;;2.73;;
8714;SDS011;4394;51.208;8.904;2023-02-24T16:21:40;3.07;;;2.77;;
8714;SDS011;4394;51.208;8.904;2023-02-24T16:24:28;3.00;;;2.50;;
8714;SDS011;4394;51.208;8.904;2023-02-24T16:27:16;3.00;;;2.57;;
8714;SDS011;4394;51.208;8.904;2023-02-24T16:30:09;2.50;;;2.30;;
8714;SDS011;4394;51.208;8.904;2023-02-24T16:33:02;3.20;;;2.37;;
8714;SDS011;4394;51.208;8.904;2023-02-24T16:35:50;2.80;;;2.50;;
8714;SDS011;4394;51.208;8.904;2023-02-24T16:38:39;3.50;;;3.10;;
8714;SDS011;4394;51.208;8.904;2023-02-24T16:41:28;3.40;;;3.10;;
8714;SDS011;4394;51.208;8.904;2023-02-24T16:44:16;4.63;;;2.90;;
8714;SDS011;4394;51.208;8.904;2023-02-24T16:47:06;6.00;;;3.60;;
8714;SDS011;4394;51.208;8.904;2023-02-24T16:49:58;5.27;;;3.53;;
8714;SDS011;4394;51.208;8.904;2023-02-24T16:52:46;4.17;;;3.27;;
8714;SDS011;4394;51.208;8.904;2023-02-24T16:55:34;4.73;;;3.80;;
8714;SDS011;4394;51.208;8.904;2023-02-24T16:58:22;5.47;;;3.67;;
8714;SDS011;4394;51.208;8.904;2023-02-24T17:04:05;6.73;;;4.00;;
8714;SDS011;4394;51.208;8.904;2023-02-24T17:06:55;6.10;;;4.20;;
8714;SDS011;4394;51.208;8.904;2023-02-24T17:09:43;6.03;;;3.70;;
8714;SDS011;4394;51.208;8.904;2023-02-24T17:12:30;7.87;;;4.30;;
8714;SDS011;4394;51.208;8.904;2023-02-24T17:15:19;8.17;;;4.40;;
8714;SDS011;4394;51.208;8.904;2023-02-24T17:18:09;5.37;;;4.40;;
8714;SDS011;4394;51.208;8.904;2023-02-24T17:20:59;5.97;;;4.60;;
8714;SDS011;4394;51.208;8.904;2023-02-24T17:23:46;7.17;;;4.97;;
8714;SDS011;4394;51.208;8.904;2023-02-24T17:26:36;7.00;;;4.23;;
8714;SDS011;4394;51.208;8.904;2023-02-24T17:29:24;6.47;;;4.27;;
8714;SDS011;4394;51.208;8.904;2023-02-24T17:32:12;7.53;;;4.30;;
8714;SDS011;4394;51.208;8.904;2023-02-24T17:35:00;6.27;;;4.33;;
8714;SDS011;4394;51.208;8.904;2023-02-24T17:37:49;8.17;;;4.73;;
8714;SDS011;4394;51.208;8.904;2023-02-24T17:40:37;7.33;;;4.57;;
8714;SDS011;4394;51.208;8.904;2023-02-24T17:43:25;7.27;;;4.80;;
8714;SDS011;4394;51.208;8.904;2023-02-24T17:46:13;7.97;;;4.90;;
8714;SDS011;4394;51.208;8.904;2023-02-24T17:49:01;8.60;;;5.20;;
8714;SDS011;4394;51.208;8.904;2023-02-24T17:51:50;7.00;;;5.00;;
8714;SDS011;4394;51.208;8.904;2023-02-24T17:54:39;7.07;;;4.73;;
8714;SDS011;4394;51.208;8.904;2023-02-24T17:57:27;7.40;;;4.80;;
8714;SDS011;4394;51.208;8.904;2023-02-24T18:00:16;9.17;;;5.00;;